createdAt,value
2023-05-11T00:01:16.767Z,99.90
2023-05-11T00:03:43.799Z,99.90
2023-05-11T00:06:11.039Z,99.90
2023-05-11T00:08:38.004Z,99.90
2023-05-11T00:11:08.822Z,99.90
2023-05-11T00:13:35.814Z,99.90
2023-05-11T00:16:04.030Z,99.90
2023-05-11T00:18:31.030Z,99.90
2023-05-11T00:20:58.061Z,99.90
2023-05-11T00:23:25.073Z,99.90
2023-05-11T00:25:52.043Z,99.90
2023-05-11T00:28:19.002Z,99.90
2023-05-11T00:30:46.091Z,99.90
2023-05-11T00:33:13.186Z,99.90
2023-05-11T00:35:40.470Z,99.90
2023-05-11T00:38:07.483Z,99.90
2023-05-11T00:40:34.469Z,99.90
2023-05-11T00:43:01.698Z,99.90
2023-05-11T00:45:29.851Z,99.90
2023-05-11T00:47:57.579Z,99.90
2023-05-11T00:50:25.623Z,99.90
2023-05-11T00:52:52.767Z,99.90
2023-05-11T00:55:23.772Z,99.90
2023-05-11T00:57:50.788Z,99.90
2023-05-11T01:00:18.422Z,99.90
2023-05-11T01:02:46.289Z,99.90
2023-05-11T01:05:13.672Z,99.90
2023-05-11T01:08:01.846Z,99.90
2023-05-11T01:10:48.898Z,99.90
2023-05-11T01:13:32.022Z,99.90
2023-05-11T01:16:04.900Z,99.90
2023-05-11T01:18:51.357Z,99.90
2023-05-11T01:21:18.890Z,99.90
2023-05-11T01:24:37.469Z,99.90
2023-05-11T01:27:40.235Z,99.90
2023-05-11T01:30:25.531Z,99.90
2023-05-11T01:33:01.089Z,99.90
2023-05-11T01:35:35.424Z,99.90
2023-05-11T01:38:10.897Z,99.90
2023-05-11T01:40:41.884Z,99.90
2023-05-11T01:43:19.350Z,99.90
2023-05-11T01:45:51.507Z,99.90
2023-05-11T01:48:25.685Z,99.90
2023-05-11T01:50:57.390Z,99.90
2023-05-11T01:53:29.783Z,99.90
2023-05-11T01:55:58.831Z,99.90
2023-05-11T01:58:28.418Z,99.90
2023-05-11T02:00:56.927Z,99.90
2023-05-11T02:03:28.332Z,99.90
2023-05-11T02:05:58.034Z,99.90
2023-05-11T02:08:27.268Z,99.90
2023-05-11T02:10:56.301Z,99.90
2023-05-11T02:13:24.865Z,99.90
2023-05-11T02:15:56.369Z,99.90
2023-05-11T02:18:23.427Z,99.90
2023-05-11T02:21:00.205Z,99.90
2023-05-11T02:23:31.081Z,99.90
2023-05-11T02:25:59.123Z,99.90
2023-05-11T02:28:26.364Z,99.90
2023-05-11T02:31:01.113Z,99.90
2023-05-11T02:33:35.422Z,99.90
2023-05-11T02:36:05.744Z,99.90
2023-05-11T02:38:36.031Z,99.90
2023-05-11T02:41:13.172Z,99.90
2023-05-11T02:43:49.304Z,99.90
2023-05-11T02:46:29.772Z,99.90
2023-05-11T02:49:02.620Z,99.90
2023-05-11T02:51:37.657Z,99.90
2023-05-11T02:54:10.934Z,99.90
2023-05-11T02:56:42.319Z,99.90
2023-05-11T02:59:10.622Z,99.90
2023-05-11T03:01:39.715Z,99.90
2023-05-11T03:04:07.107Z,99.90
2023-05-11T03:06:35.787Z,99.90
2023-05-11T03:09:07.281Z,99.90
2023-05-11T03:11:42.510Z,99.90
2023-05-11T03:14:09.960Z,99.90
2023-05-11T03:16:39.532Z,99.90
2023-05-11T03:19:08.516Z,99.90
2023-05-11T03:21:39.636Z,99.90
2023-05-11T03:24:08.435Z,99.90
2023-05-11T03:26:36.977Z,99.90
2023-05-11T03:29:07.565Z,99.90
2023-05-11T03:31:34.799Z,99.90
2023-05-11T03:34:01.942Z,99.90
2023-05-11T03:36:33.564Z,99.90
2023-05-11T03:39:03.016Z,99.90
2023-05-11T03:41:35.486Z,99.90
2023-05-11T03:44:06.799Z,99.90
2023-05-11T03:46:40.773Z,99.90
2023-05-11T03:49:12.270Z,99.90
2023-05-11T03:51:41.512Z,99.90
2023-05-11T03:54:09.029Z,99.90
2023-05-11T03:56:38.516Z,99.90
2023-05-11T03:59:05.830Z,99.90
2023-05-11T04:01:33.975Z,99.90
2023-05-11T04:04:01.062Z,99.90
2023-05-11T04:06:28.459Z,99.90
2023-05-11T04:09:06.748Z,99.90
2023-05-11T04:11:38.108Z,99.90
2023-05-11T04:14:05.603Z,99.90
2023-05-11T04:16:32.953Z,99.90
2023-05-11T04:19:02.340Z,99.90
2023-05-11T04:21:29.476Z,99.90
2023-05-11T04:23:56.477Z,99.90
2023-05-11T04:26:24.730Z,99.90
2023-05-11T04:28:51.669Z,99.90
2023-05-11T04:31:18.687Z,99.90
2023-05-11T04:33:46.615Z,99.90
2023-05-11T04:36:13.789Z,99.90
2023-05-11T04:38:41.131Z,99.90
2023-05-11T04:41:09.685Z,99.90
2023-05-11T04:43:39.093Z,99.90
2023-05-11T04:46:08.383Z,99.90
2023-05-11T04:48:35.952Z,99.90
2023-05-11T04:51:06.855Z,99.90
2023-05-11T04:53:39.038Z,99.90
2023-05-11T04:56:06.163Z,99.90
2023-05-11T04:58:33.683Z,99.90
2023-05-11T05:01:00.853Z,99.90
2023-05-11T05:03:27.888Z,99.90
2023-05-11T05:05:55.458Z,99.90
2023-05-11T05:08:22.483Z,99.90
2023-05-11T05:10:49.543Z,99.90
2023-05-11T05:13:19.331Z,99.90
2023-05-11T05:15:46.479Z,99.90
2023-05-11T05:18:13.422Z,99.90
2023-05-11T05:20:41.823Z,99.90
2023-05-11T05:23:09.273Z,99.90
2023-05-11T05:25:36.164Z,99.90
2023-05-11T05:28:03.073Z,99.90
2023-05-11T05:30:30.454Z,99.90
2023-05-11T05:32:57.513Z,99.90
2023-05-11T05:35:25.449Z,99.90
2023-05-11T05:37:53.025Z,99.90
2023-05-11T05:40:20.759Z,99.90
2023-05-11T05:42:52.003Z,99.90
2023-05-11T05:45:21.834Z,99.90
2023-05-11T05:47:51.757Z,99.90
2023-05-11T05:50:19.543Z,99.90
2023-05-11T05:52:46.824Z,99.90
2023-05-11T05:55:14.242Z,99.90
2023-05-11T05:57:42.515Z,99.90
2023-05-11T06:00:11.229Z,99.90
2023-05-11T06:02:48.569Z,99.90
2023-05-11T06:05:23.201Z,99.90
2023-05-11T06:08:01.892Z,99.90
2023-05-11T06:10:36.654Z,99.90
2023-05-11T06:13:03.939Z,99.90
2023-05-11T06:15:31.193Z,99.90
2023-05-11T06:18:05.236Z,99.90
2023-05-11T06:20:32.674Z,99.90
2023-05-11T06:23:00.326Z,99.90
2023-05-11T06:25:27.874Z,99.90
2023-05-11T06:27:55.073Z,99.90
2023-05-11T06:30:22.423Z,99.90
2023-05-11T06:32:52.575Z,99.90
2023-05-11T06:35:22.586Z,99.90
2023-05-11T06:37:50.909Z,99.90
2023-05-11T06:40:19.079Z,99.90
2023-05-11T06:42:46.324Z,99.90
2023-05-11T06:45:13.440Z,99.90
2023-05-11T06:47:42.782Z,99.90
2023-05-11T06:50:10.493Z,99.90
2023-05-11T06:52:38.338Z,99.90
2023-05-11T06:55:06.146Z,99.90
2023-05-11T06:57:33.104Z,99.90
2023-05-11T07:00:00.094Z,99.90
2023-05-11T07:02:27.257Z,99.90
2023-05-11T07:04:54.311Z,99.90
2023-05-11T07:07:22.754Z,99.90
2023-05-11T07:09:49.912Z,99.90
2023-05-11T07:12:16.965Z,99.90
2023-05-11T07:14:44.013Z,99.90
2023-05-11T07:17:11.038Z,99.90
2023-05-11T07:19:38.063Z,99.90
2023-05-11T07:22:05.891Z,99.90
2023-05-11T07:24:32.836Z,99.90
2023-05-11T07:27:00.754Z,99.90
2023-05-11T07:29:27.902Z,99.90
2023-05-11T07:31:55.092Z,99.90
2023-05-11T07:34:22.020Z,99.90
2023-05-11T07:36:49.046Z,99.90
2023-05-11T07:39:17.075Z,99.90
2023-05-11T07:41:44.133Z,99.90
2023-05-11T07:44:11.555Z,99.90
2023-05-11T07:46:38.720Z,99.90
2023-05-11T07:49:15.702Z,99.90
2023-05-11T07:51:45.900Z,99.90
2023-05-11T07:54:12.922Z,99.90
2023-05-11T07:56:40.027Z,99.90
2023-05-11T07:59:07.178Z,99.90
2023-05-11T08:01:34.445Z,99.90
2023-05-11T08:04:01.457Z,99.90
2023-05-11T08:06:28.658Z,99.90
2023-05-11T08:08:55.539Z,99.90
2023-05-11T08:11:22.542Z,99.90
2023-05-11T08:13:49.577Z,99.90
2023-05-11T08:16:17.009Z,99.90
2023-05-11T08:18:44.696Z,99.90
2023-05-11T08:21:11.777Z,99.90
2023-05-11T08:23:39.006Z,99.90
2023-05-11T08:26:05.930Z,99.90
2023-05-11T08:28:33.543Z,99.90
2023-05-11T08:31:01.333Z,99.90
2023-05-11T08:35:58.622Z,99.90
2023-05-11T08:38:25.521Z,99.90
2023-05-11T08:40:53.011Z,99.90
2023-05-11T08:43:21.071Z,99.90
2023-05-11T08:45:56.342Z,99.90
2023-05-11T08:48:24.069Z,99.90
2023-05-11T08:50:51.980Z,99.90
2023-05-11T08:53:18.955Z,99.90
2023-05-11T08:55:47.804Z,99.90
2023-05-11T08:58:19.435Z,99.90
2023-05-11T09:00:48.530Z,99.90
2023-05-11T09:03:19.903Z,99.90
2023-05-11T09:05:47.814Z,99.90
2023-05-11T09:08:17.517Z,99.90
2023-05-11T09:10:46.000Z,99.90
2023-05-11T09:13:13.389Z,99.90
2023-05-11T09:15:40.409Z,99.90
2023-05-11T09:18:07.983Z,99.90
2023-05-11T09:20:35.126Z,99.90
2023-05-11T09:23:02.515Z,99.90
2023-05-11T09:25:34.900Z,99.90
2023-05-11T09:28:01.985Z,99.90
2023-05-11T09:30:29.035Z,99.90
2023-05-11T09:32:59.292Z,99.90
2023-05-11T09:35:31.968Z,99.90
2023-05-11T09:38:04.094Z,99.90
2023-05-11T09:40:46.314Z,99.90
2023-05-11T09:43:31.789Z,99.90
2023-05-11T09:46:07.207Z,99.90
2023-05-11T09:48:35.434Z,99.90
2023-05-11T09:51:08.211Z,99.90
2023-05-11T09:53:46.067Z,99.90
2023-05-11T09:56:13.995Z,99.90
2023-05-11T09:58:55.986Z,99.90
2023-05-11T10:01:34.688Z,99.90
2023-05-11T10:04:21.436Z,99.90
2023-05-11T10:06:55.829Z,99.90
2023-05-11T10:09:27.435Z,99.90
2023-05-11T10:11:56.541Z,99.90
2023-05-11T10:14:28.368Z,99.90
2023-05-11T10:16:57.694Z,99.90
2023-05-11T10:19:25.412Z,99.90
2023-05-11T10:21:52.873Z,99.90
2023-05-11T10:24:20.752Z,99.90
2023-05-11T10:26:49.830Z,99.90
2023-05-11T10:29:19.853Z,99.90
2023-05-11T10:31:48.747Z,99.90
2023-05-11T10:34:16.824Z,99.90
2023-05-11T10:36:46.897Z,99.90
2023-05-11T10:39:13.861Z,99.90
2023-05-11T10:42:42.203Z,99.90
2023-05-11T10:45:34.070Z,99.90
2023-05-11T10:48:28.099Z,99.90
2023-05-11T10:51:09.880Z,99.90
2023-05-11T10:54:08.579Z,99.90
2023-05-11T10:57:35.478Z,99.90
2023-05-11T11:01:18.774Z,99.90
2023-05-11T11:04:06.054Z,99.90
2023-05-11T11:06:39.463Z,99.90
2023-05-11T11:09:16.233Z,99.90
2023-05-11T11:11:50.961Z,99.90
2023-05-11T11:14:19.388Z,99.90
2023-05-11T11:17:35.536Z,99.90
2023-05-11T11:20:08.906Z,99.90
2023-05-11T11:22:39.077Z,99.90
2023-05-11T11:25:13.953Z,99.90
2023-05-11T11:27:40.855Z,99.90
2023-05-11T11:30:30.527Z,99.90
2023-05-11T11:33:20.796Z,99.90
2023-05-11T11:35:48.892Z,99.90
2023-05-11T11:38:20.504Z,99.90
2023-05-11T11:40:54.589Z,99.90
2023-05-11T11:43:43.833Z,99.90
2023-05-11T11:46:28.849Z,99.90
2023-05-11T11:49:10.025Z,99.90
2023-05-11T11:51:40.808Z,99.90
2023-05-11T11:54:08.802Z,99.90
2023-05-11T11:56:40.601Z,99.90
2023-05-11T11:59:11.597Z,99.90
2023-05-11T12:01:40.038Z,99.90
2023-05-11T12:04:39.336Z,99.90
2023-05-11T12:07:10.137Z,99.90
2023-05-11T12:09:38.977Z,99.90
2023-05-11T12:12:06.849Z,99.90
2023-05-11T12:14:35.716Z,99.90
2023-05-11T12:17:05.979Z,99.90
2023-05-11T12:19:32.886Z,99.90
2023-05-11T12:22:00.196Z,99.90
2023-05-11T12:24:27.311Z,99.90
2023-05-11T12:26:57.624Z,99.90
2023-05-11T12:29:25.420Z,99.90
2023-05-11T12:31:52.682Z,99.90
2023-05-11T12:34:25.416Z,99.90
2023-05-11T12:36:54.762Z,99.90
2023-05-11T12:39:27.046Z,99.90
2023-05-11T12:41:57.329Z,99.90
2023-05-11T12:44:27.050Z,99.90
2023-05-11T12:46:54.729Z,99.90
2023-05-11T12:49:27.243Z,99.90
2023-05-11T12:52:07.718Z,99.90
2023-05-11T12:54:55.058Z,99.90
2023-05-11T12:57:28.196Z,99.90
2023-05-11T13:00:16.481Z,99.90
2023-05-11T13:02:56.653Z,99.90
2023-05-11T13:05:27.071Z,99.90
2023-05-11T13:08:04.122Z,99.90
2023-05-11T13:10:31.943Z,99.90
2023-05-11T13:12:59.345Z,99.90
2023-05-11T13:15:29.419Z,99.90
2023-05-11T13:18:02.830Z,99.90
2023-05-11T13:20:32.141Z,99.90
2023-05-11T13:23:16.294Z,99.90
2023-05-11T13:25:46.128Z,99.90
2023-05-11T13:28:18.890Z,99.90
2023-05-11T13:30:46.648Z,99.90
2023-05-11T13:33:14.218Z,99.90
2023-05-11T13:35:43.058Z,99.90
2023-05-11T13:38:11.872Z,99.90
2023-05-11T13:40:39.464Z,99.90
2023-05-11T13:43:06.608Z,99.90
2023-05-11T13:45:33.941Z,99.90
2023-05-11T13:48:00.977Z,99.90
2023-05-11T13:50:28.026Z,99.90
2023-05-11T13:52:55.506Z,99.90
2023-05-11T13:55:22.477Z,99.90
2023-05-11T13:57:49.466Z,99.90
2023-05-11T14:00:17.310Z,99.90
2023-05-11T14:02:44.932Z,99.90
2023-05-11T14:05:12.106Z,99.90
2023-05-11T14:07:47.735Z,99.90
2023-05-11T14:10:17.518Z,98.70
2023-05-11T14:12:45.392Z,99.70
2023-05-11T14:15:12.691Z,99.90
2023-05-11T14:17:42.871Z,99.90
2023-05-11T14:20:12.228Z,99.60
2023-05-11T14:22:40.671Z,99.70
2023-05-11T14:25:08.840Z,99.40
2023-05-11T14:27:36.369Z,97.30
2023-05-11T14:30:04.284Z,96.00
2023-05-11T14:32:31.723Z,94.90
2023-05-11T14:34:58.654Z,94.70
2023-05-11T14:37:25.871Z,95.30
2023-05-11T14:39:52.815Z,95.00
2023-05-11T14:42:21.439Z,93.70
2023-05-11T14:44:48.405Z,94.50
2023-05-11T14:47:16.048Z,94.20
2023-05-11T14:49:42.940Z,95.00
2023-05-11T14:52:10.649Z,95.40
2023-05-11T14:54:37.853Z,96.30
2023-05-11T14:57:05.722Z,96.80
2023-05-11T14:59:32.641Z,96.80
2023-05-11T15:02:00.301Z,96.50
2023-05-11T15:04:27.473Z,97.10
2023-05-11T15:06:56.133Z,97.10
2023-05-11T15:09:24.064Z,97.40
2023-05-11T15:11:51.006Z,97.30
2023-05-11T15:14:18.003Z,97.30
2023-05-11T15:16:46.000Z,97.90
2023-05-11T15:19:13.559Z,98.20
2023-05-11T15:21:40.737Z,97.10
2023-05-11T15:24:10.820Z,97.40
2023-05-11T15:26:38.497Z,98.10
2023-05-11T15:29:05.522Z,98.20
2023-05-11T15:31:32.870Z,98.00
2023-05-11T15:33:59.875Z,98.10
2023-05-11T15:36:29.749Z,98.50
2023-05-11T15:38:57.501Z,97.60
2023-05-11T15:41:24.461Z,97.30
2023-05-11T15:43:52.495Z,97.40
2023-05-11T15:46:19.538Z,97.40
2023-05-11T15:48:47.388Z,97.30
2023-05-11T15:51:14.277Z,97.80
2023-05-11T15:53:41.608Z,98.50
2023-05-11T15:56:09.766Z,98.70
2023-05-11T15:58:36.746Z,99.20
2023-05-11T16:01:03.832Z,99.80
2023-05-11T16:03:30.969Z,99.60
2023-05-11T16:05:58.094Z,99.90
2023-05-11T16:08:25.050Z,99.90
2023-05-11T16:10:51.930Z,99.90
2023-05-11T16:13:18.935Z,99.90
2023-05-11T16:15:46.432Z,99.90
2023-05-11T16:18:14.184Z,99.90
2023-05-11T16:20:41.206Z,99.90
2023-05-11T16:23:10.059Z,99.90
2023-05-11T16:25:37.246Z,99.90
2023-05-11T16:28:07.155Z,99.90
2023-05-11T16:30:34.129Z,99.90
2023-05-11T16:33:01.008Z,99.90
2023-05-11T16:35:28.613Z,99.90
2023-05-11T16:37:56.664Z,99.90
2023-05-11T16:40:23.679Z,99.90
2023-05-11T16:42:50.895Z,99.90
2023-05-11T16:45:18.067Z,99.90
2023-05-11T16:47:45.612Z,99.90
2023-05-11T16:50:16.425Z,99.90
2023-05-11T16:52:43.812Z,99.90
2023-05-11T16:55:12.018Z,99.90
2023-05-11T16:57:39.147Z,99.90
2023-05-11T17:00:08.347Z,99.90
2023-05-11T17:02:35.549Z,99.90
2023-05-11T17:05:02.993Z,99.90
2023-05-11T17:07:30.032Z,99.90
2023-05-11T17:09:57.445Z,99.90
2023-05-11T17:12:24.581Z,99.90
2023-05-11T17:14:51.627Z,99.90
2023-05-11T17:17:18.658Z,99.90
2023-05-11T17:19:45.781Z,99.90
2023-05-11T17:22:12.701Z,99.90
2023-05-11T17:24:39.751Z,99.90
2023-05-11T17:27:07.242Z,99.90
2023-05-11T17:29:34.144Z,99.90
2023-05-11T17:32:01.234Z,99.90
2023-05-11T17:34:28.929Z,99.90
2023-05-11T17:36:57.012Z,99.90
2023-05-11T17:39:25.528Z,99.90
2023-05-11T17:41:52.549Z,99.90
2023-05-11T17:44:19.412Z,99.90
2023-05-11T17:46:46.671Z,99.90
2023-05-11T17:49:13.698Z,99.90
2023-05-11T17:51:40.660Z,99.90
2023-05-11T17:54:07.691Z,99.90
2023-05-11T17:56:34.722Z,99.90
2023-05-11T17:59:01.611Z,99.90
2023-05-11T18:01:28.737Z,99.90
2023-05-11T18:03:58.703Z,99.90
2023-05-11T18:06:26.055Z,99.90
2023-05-11T18:08:52.957Z,99.90
2023-05-11T18:11:20.507Z,99.90
2023-05-11T18:13:47.452Z,99.90
2023-05-11T18:16:14.636Z,99.90
2023-05-11T18:18:42.696Z,99.90
2023-05-11T18:21:10.784Z,99.90
2023-05-11T18:23:38.245Z,99.90
2023-05-11T18:26:06.197Z,99.90
2023-05-11T18:28:33.174Z,99.90
2023-05-11T18:31:00.314Z,99.90
2023-05-11T18:33:27.630Z,99.90
2023-05-11T18:35:54.880Z,99.90
2023-05-11T18:38:21.828Z,99.90
2023-05-11T18:40:48.870Z,99.90
2023-05-11T18:43:15.946Z,99.90
2023-05-11T18:45:45.473Z,99.90
2023-05-11T18:48:12.642Z,99.90
2023-05-11T18:50:40.354Z,99.90
2023-05-11T18:53:08.411Z,99.90
2023-05-11T18:55:45.066Z,99.90
2023-05-11T18:58:20.472Z,99.90
2023-05-11T19:00:48.994Z,99.90
2023-05-11T19:03:19.386Z,99.90
2023-05-11T19:05:48.153Z,99.90
2023-05-11T19:08:15.468Z,99.90
2023-05-11T19:10:45.136Z,99.90
2023-05-11T19:13:13.106Z,99.90
2023-05-11T19:15:40.317Z,99.90
2023-05-11T19:18:07.794Z,99.90
2023-05-11T19:20:34.907Z,99.90
2023-05-11T19:23:02.249Z,99.90
2023-05-11T19:25:29.531Z,99.90
2023-05-11T19:27:59.910Z,99.90
2023-05-11T19:30:26.860Z,99.90
2023-05-11T19:32:53.764Z,99.90
2023-05-11T19:35:22.324Z,99.90
2023-05-11T19:37:50.540Z,99.90
2023-05-11T19:40:44.539Z,99.90
2023-05-11T19:43:05.916Z,99.90
2023-05-11T19:45:33.230Z,99.90
2023-05-11T19:48:00.644Z,99.90
2023-05-11T19:50:27.976Z,99.90
2023-05-11T19:52:55.038Z,99.90
2023-05-11T19:55:21.949Z,99.90
2023-05-11T19:57:48.891Z,99.90
2023-05-11T20:00:18.261Z,99.90
2023-05-11T20:02:46.562Z,99.90
2023-05-11T20:05:13.685Z,99.90
2023-05-11T20:07:40.683Z,99.90
2023-05-11T20:10:08.361Z,99.90
2023-05-11T20:12:35.600Z,99.90
2023-05-11T20:15:02.485Z,99.90
2023-05-11T20:17:30.584Z,99.90
2023-05-11T20:19:57.612Z,99.90
2023-05-11T20:22:24.550Z,99.90
2023-05-11T20:24:51.889Z,99.90
2023-05-11T20:27:18.858Z,99.90
2023-05-11T20:29:45.768Z,99.90
2023-05-11T20:32:12.816Z,99.90
2023-05-11T20:34:39.923Z,99.90
2023-05-11T20:37:07.374Z,99.90
2023-05-11T20:39:34.265Z,99.90
2023-05-11T20:42:04.264Z,99.90
2023-05-11T20:44:31.471Z,99.90
2023-05-11T20:46:58.429Z,99.90
2023-05-11T20:49:35.097Z,99.90
2023-05-11T20:52:07.469Z,99.90
2023-05-11T20:54:35.627Z,99.90
2023-05-11T20:57:04.194Z,99.90
2023-05-11T21:02:02.592Z,99.90
2023-05-11T21:04:31.287Z,99.90
2023-05-11T21:06:58.531Z,99.90
2023-05-11T21:09:25.564Z,99.90
2023-05-11T21:11:53.564Z,99.90
2023-05-11T21:14:20.619Z,99.90
2023-05-11T21:16:48.152Z,99.90
2023-05-11T21:19:18.522Z,99.90
2023-05-11T21:21:48.538Z,99.90
2023-05-11T21:24:16.859Z,99.90
2023-05-11T21:26:47.759Z,99.90
2023-05-11T21:29:15.255Z,99.90
2023-05-11T21:31:42.180Z,99.90
2023-05-11T21:34:09.970Z,99.90
2023-05-11T21:36:38.873Z,99.90
2023-05-11T21:39:06.065Z,99.90
2023-05-11T21:41:33.131Z,99.90
2023-05-11T21:44:00.391Z,99.90
2023-05-11T21:46:27.559Z,99.90
2023-05-11T21:48:54.679Z,99.90
2023-05-11T21:51:21.956Z,99.90
2023-05-11T21:53:49.273Z,99.90
2023-05-11T21:56:16.361Z,99.90
2023-05-11T21:58:43.313Z,99.90
2023-05-11T22:01:10.193Z,99.90
2023-05-11T22:03:37.228Z,99.90
2023-05-11T22:06:04.576Z,99.90
2023-05-11T22:08:31.550Z,99.90
2023-05-11T22:10:58.466Z,99.90
2023-05-11T22:13:26.278Z,99.90
2023-05-11T22:15:53.295Z,99.90
2023-05-11T22:18:20.509Z,99.90
2023-05-11T22:20:47.576Z,99.90
2023-05-11T22:23:15.747Z,99.90
2023-05-11T22:25:42.850Z,99.90
2023-05-11T22:28:10.086Z,99.90
2023-05-11T22:30:37.493Z,99.90
2023-05-11T22:33:04.677Z,99.90
2023-05-11T22:35:31.793Z,99.90
2023-05-11T22:38:01.689Z,99.90
2023-05-11T22:40:28.647Z,99.90
2023-05-11T22:42:55.725Z,99.90
2023-05-11T22:45:22.750Z,99.90
2023-05-11T22:47:49.663Z,99.90
2023-05-11T22:50:16.878Z,99.90
2023-05-11T22:52:43.911Z,99.90
2023-05-11T22:55:11.112Z,99.90
2023-05-11T22:57:38.139Z,99.90
2023-05-11T23:00:06.395Z,99.90
2023-05-11T23:02:33.483Z,99.90
2023-05-11T23:05:00.554Z,99.90
2023-05-11T23:07:27.510Z,99.90
2023-05-11T23:09:55.607Z,99.90
2023-05-11T23:12:22.929Z,99.90
2023-05-11T23:14:49.983Z,99.90
2023-05-11T23:17:17.204Z,99.90
2023-05-11T23:19:44.320Z,99.90
2023-05-11T23:22:11.258Z,99.90
2023-05-11T23:24:38.256Z,99.90
2023-05-11T23:27:05.580Z,99.90
2023-05-11T23:29:32.603Z,99.90
2023-05-11T23:31:59.563Z,99.90
2023-05-11T23:34:27.511Z,99.90
2023-05-11T23:36:54.612Z,99.90
2023-05-11T23:39:21.483Z,99.90
2023-05-11T23:41:49.281Z,99.90
2023-05-11T23:44:17.513Z,99.90
2023-05-11T23:46:44.524Z,99.90
2023-05-11T23:49:11.638Z,99.90
2023-05-11T23:51:38.966Z,99.90
2023-05-11T23:54:06.666Z,99.90
2023-05-11T23:56:33.736Z,99.90
2023-05-11T23:59:00.844Z,99.90
